sensor_id;sensor_type;location;lat;lon;timestamp;pressure;altitude;pressure_sealevel;temperature;humidity
6694;BME280;3384;42.628;23.380;2024-03-23T00:51:47;94222.41;;;6.39;83.70
6694;BME280;3384;42.628;23.380;2024-03-23T00:54:14;94231.13;;;5.96;85.40
6694;BME280;3384;42.628;23.380;2024-03-23T00:56:40;94217.66;;;5.62;87.04
6694;BME280;3384;42.628;23.380;2024-03-23T00:59:07;94223.56;;;5.44;87.99
6694;BME280;3384;42.628;23.380;2024-03-23T01:01:33;94218.25;;;5.39;88.29
6694;BME280;3384;42.628;23.380;2024-03-23T01:04:00;94223.81;;;5.43;87.47
6694;BME280;3384;42.628;23.380;2024-03-23T01:06:26;94221.72;;;5.25;88.87
6694;BME280;3384;42.628;23.380;2024-03-23T01:08:54;94212.16;;;5.19;88.66
6694;BME280;3384;42.628;23.380;2024-03-23T01:11:20;94211.13;;;5.15;87.75
6694;BME280;3384;42.628;23.380;2024-03-23T01:13:47;94204.97;;;5.49;86.18
6694;BME280;3384;42.628;23.380;2024-03-23T01:16:13;94207.38;;;5.26;86.40
6694;BME280;3384;42.628;23.380;2024-03-23T01:18:40;94211.38;;;5.03;87.13
6694;BME280;3384;42.628;23.380;2024-03-23T01:21:06;94205.84;;;5.00;86.63
6694;BME280;3384;42.628;23.380;2024-03-23T01:23:33;94206.34;;;5.12;86.53
6694;BME280;3384;42.628;23.380;2024-03-23T01:26:00;94199.19;;;5.02;86.93
6694;BME280;3384;42.628;23.380;2024-03-23T01:28:27;94196.28;;;4.94;87.94
6694;BME280;3384;42.628;23.380;2024-03-23T01:30:53;94201.56;;;5.04;87.27
6694;BME280;3384;42.628;23.380;2024-03-23T01:33:20;94212.72;;;5.21;88.30
6694;BME280;3384;42.628;23.380;2024-03-23T01:35:46;94207.66;;;5.19;87.11
6694;BME280;3384;42.628;23.380;2024-03-23T01:38:13;94205.56;;;4.91;89.65
6694;BME280;3384;42.628;23.380;2024-03-23T01:40:39;94207.13;;;5.32;87.83
6694;BME280;3384;42.628;23.380;2024-03-23T01:43:08;94207.41;;;5.11;88.82
6694;BME280;3384;42.628;23.380;2024-03-23T01:45:34;94200.22;;;5.16;88.48
6694;BME280;3384;42.628;23.380;2024-03-23T01:48:02;94202.09;;;5.11;88.67
6694;BME280;3384;42.628;23.380;2024-03-23T01:50:30;94205.56;;;4.91;90.65
6694;BME280;3384;42.628;23.380;2024-03-23T01:53:00;94204.22;;;4.99;90.90
6694;BME280;3384;42.628;23.380;2024-03-23T01:55:27;94200.25;;;4.86;90.58
6694;BME280;3384;42.628;23.380;2024-03-23T01:57:56;94212.97;;;5.19;89.42
6694;BME280;3384;42.628;23.380;2024-03-23T02:00:24;94213.25;;;4.88;90.27
6694;BME280;3384;42.628;23.380;2024-03-23T02:02:53;94209.53;;;4.99;90.20
6694;BME280;3384;42.628;23.380;2024-03-23T02:05:20;94209.00;;;5.07;89.96
6694;BME280;3384;42.628;23.380;2024-03-23T02:07:47;94212.22;;;4.89;90.15
6694;BME280;3384;42.628;23.380;2024-03-23T02:10:13;94208.22;;;4.81;89.80
6694;BME280;3384;42.628;23.380;2024-03-23T02:12:40;94215.88;;;5.28;87.86
6694;BME280;3384;42.628;23.380;2024-03-23T02:15:07;94210.34;;;4.94;88.94
6694;BME280;3384;42.628;23.380;2024-03-23T02:17:35;94213.28;;;5.03;89.44
6694;BME280;3384;42.628;23.380;2024-03-23T02:20:02;94205.31;;;5.03;89.46
6694;BME280;3384;42.628;23.380;2024-03-23T02:22:36;94213.25;;;4.98;89.13
6694;BME280;3384;42.628;23.380;2024-03-23T02:25:04;94216.97;;;5.12;88.92
6694;BME280;3384;42.628;23.380;2024-03-23T02:27:31;94216.19;;;4.61;93.94
6694;BME280;3384;42.628;23.380;2024-03-23T02:29:57;94217.53;;;4.69;94.57
6694;BME280;3384;42.628;23.380;2024-03-23T02:32:24;94213.53;;;4.61;95.05
6694;BME280;3384;42.628;23.380;2024-03-23T02:34:50;94213.81;;;4.80;93.86
6694;BME280;3384;42.628;23.380;2024-03-23T02:37:17;94206.38;;;4.72;94.65
6694;BME280;3384;42.628;23.380;2024-03-23T02:39:43;94216.19;;;4.56;91.86
6694;BME280;3384;42.628;23.380;2024-03-23T02:42:11;94217.22;;;4.55;89.77
6694;BME280;3384;42.628;23.380;2024-03-23T02:44:37;94211.66;;;4.77;87.50
6694;BME280;3384;42.628;23.380;2024-03-23T02:47:04;94211.94;;;4.70;85.58
6694;BME280;3384;42.628;23.380;2024-03-23T02:49:30;94211.09;;;5.25;83.23
6694;BME280;3384;42.628;23.380;2024-03-23T02:51:57;94209.28;;;5.15;82.64
6694;BME280;3384;42.628;23.380;2024-03-23T02:54:23;94209.44;;;5.54;79.74
6694;BME280;3384;42.628;23.380;2024-03-23T02:56:50;94203.19;;;5.00;80.24
6694;BME280;3384;42.628;23.380;2024-03-23T02:59:18;94206.88;;;4.99;80.21
6694;BME280;3384;42.628;23.380;2024-03-23T03:01:45;94209.53;;;4.74;81.98
6694;BME280;3384;42.628;23.380;2024-03-23T03:04:11;94204.50;;;4.52;83.31
6694;BME280;3384;42.628;23.380;2024-03-23T03:06:38;94197.06;;;4.69;83.54
6694;BME280;3384;42.628;23.380;2024-03-23T03:09:04;94211.66;;;5.17;80.80
6694;BME280;3384;42.628;23.380;2024-03-23T03:11:31;94203.72;;;4.87;80.63
6694;BME280;3384;42.628;23.380;2024-03-23T03:13:57;94208.75;;;4.88;79.94
6694;BME280;3384;42.628;23.380;2024-03-23T03:16:27;94200.25;;;4.51;82.31
6694;BME280;3384;42.628;23.380;2024-03-23T03:18:53;94207.66;;;4.29;83.77
6694;BME280;3384;42.628;23.380;2024-03-23T03:21:20;94211.66;;;4.37;84.45
6694;BME280;3384;42.628;23.380;2024-03-23T03:23:45;94203.16;;;4.45;84.38
6694;BME280;3384;42.628;23.380;2024-03-23T03:26:15;94209.25;;;4.45;83.85
6694;BME280;3384;42.628;23.380;2024-03-23T03:28:42;94214.31;;;5.07;80.72
6694;BME280;3384;42.628;23.380;2024-03-23T03:31:09;94207.88;;;5.43;78.66
6694;BME280;3384;42.628;23.380;2024-03-23T03:33:37;94208.38;;;5.55;76.83
6694;BME280;3384;42.628;23.380;2024-03-23T03:36:04;94210.22;;;5.64;76.94
6694;BME280;3384;42.628;23.380;2024-03-23T03:38:30;94210.25;;;5.44;77.17
6694;BME280;3384;42.628;23.380;2024-03-23T03:40:57;94205.56;;;4.81;79.66
6694;BME280;3384;42.628;23.380;2024-03-23T03:43:24;94210.88;;;5.06;79.48
6694;BME280;3384;42.628;23.380;2024-03-23T03:45:52;94209.53;;;4.94;80.43
6694;BME280;3384;42.628;23.380;2024-03-23T03:48:18;94211.91;;;4.55;82.39
6694;BME280;3384;42.628;23.380;2024-03-23T03:50:46;94206.91;;;4.69;83.22
6694;BME280;3384;42.628;23.380;2024-03-23T03:53:12;94206.59;;;4.35;86.11
6694;BME280;3384;42.628;23.380;2024-03-23T03:55:39;94212.94;;;4.14;89.19
6694;BME280;3384;42.628;23.380;2024-03-23T03:58:05;94213.41;;;4.06;90.47
6694;BME280;3384;42.628;23.380;2024-03-23T04:00:32;94216.66;;;4.23;89.55
6694;BME280;3384;42.628;23.380;2024-03-23T04:02:58;94211.09;;;4.25;89.46
6694;BME280;3384;42.628;23.380;2024-03-23T04:05:25;94206.34;;;4.52;86.52
6694;BME280;3384;42.628;23.380;2024-03-23T04:07:52;94205.28;;;4.88;83.27
6694;BME280;3384;42.628;23.380;2024-03-23T04:10:19;94220.97;;;4.99;81.87
6694;BME280;3384;42.628;23.380;2024-03-23T04:12:46;94211.16;;;4.80;81.94
6694;BME280;3384;42.628;23.380;2024-03-23T04:15:14;94214.88;;;4.89;81.67
6694;BME280;3384;42.628;23.380;2024-03-23T04:17:40;94215.38;;;4.56;81.98
6694;BME280;3384;42.628;23.380;2024-03-23T04:20:09;94216.72;;;4.68;80.98
6694;BME280;3384;42.628;23.380;2024-03-23T04:22:36;94209.56;;;4.69;82.09
6694;BME280;3384;42.628;23.380;2024-03-23T04:25:06;94216.94;;;4.47;84.48
6694;BME280;3384;42.628;23.380;2024-03-23T04:27:32;94213.19;;;4.18;87.29
6694;BME280;3384;42.628;23.380;2024-03-23T04:29:59;94218.50;;;4.18;88.24
6694;BME280;3384;42.628;23.380;2024-03-23T04:32:26;94226.38;;;3.93;89.88
6694;BME280;3384;42.628;23.380;2024-03-23T04:34:54;94223.53;;;4.14;90.71
6694;BME280;3384;42.628;23.380;2024-03-23T04:37:20;94221.13;;;4.08;90.05
6694;BME280;3384;42.628;23.380;2024-03-23T04:39:47;94228.03;;;4.19;90.68
6694;BME280;3384;42.628;23.380;2024-03-23T04:42:16;94223.03;;;4.37;91.01
6694;BME280;3384;42.628;23.380;2024-03-23T04:44:43;94226.75;;;4.21;93.12
6694;BME280;3384;42.628;23.380;2024-03-23T04:47:10;94232.16;;;3.80;97.14
6694;BME280;3384;42.628;23.380;2024-03-23T04:49:37;94227.44;;;3.92;97.95
6694;BME280;3384;42.628;23.380;2024-03-23T04:52:04;94239.09;;;3.86;97.41
6694;BME280;3384;42.628;23.380;2024-03-23T04:54:31;94243.88;;;3.94;96.61
6694;BME280;3384;42.628;23.380;2024-03-23T04:56:59;94232.72;;;3.82;98.79
6694;BME280;3384;42.628;23.380;2024-03-23T04:59:27;94235.63;;;3.85;98.37
6694;BME280;3384;42.628;23.380;2024-03-23T05:01:53;94237.34;;;4.21;93.63
6694;BME280;3384;42.628;23.380;2024-03-23T05:04:20;94244.03;;;4.54;91.85
6694;BME280;3384;42.628;23.380;2024-03-23T05:06:46;94236.63;;;4.81;89.42
6694;BME280;3384;42.628;23.380;2024-03-23T05:09:13;94237.16;;;4.63;91.30
6694;BME280;3384;42.628;23.380;2024-03-23T05:11:39;94238.22;;;5.07;89.39
6694;BME280;3384;42.628;23.380;2024-03-23T05:14:07;94235.31;;;4.73;92.52
6694;BME280;3384;42.628;23.380;2024-03-23T05:16:36;94240.63;;;4.73;92.88
6694;BME280;3384;42.628;23.380;2024-03-23T05:19:03;94240.34;;;4.55;96.49
6694;BME280;3384;42.628;23.380;2024-03-23T05:21:29;94242.47;;;5.08;93.03
6694;BME280;3384;42.628;23.380;2024-03-23T05:23:56;94228.88;;;5.34;90.26
6694;BME280;3384;42.628;23.380;2024-03-23T05:26:22;94242.16;;;5.34;90.40
6694;BME280;3384;42.628;23.380;2024-03-23T05:28:49;94233.41;;;5.19;92.75
6694;BME280;3384;42.628;23.380;2024-03-23T05:31:23;94229.72;;;5.15;93.89
6694;BME280;3384;42.628;23.380;2024-03-23T05:33:51;94228.13;;;5.14;93.93
6694;BME280;3384;42.628;23.380;2024-03-23T05:36:18;94223.09;;;5.02;96.66
6694;BME280;3384;42.628;23.380;2024-03-23T05:38:45;94222.53;;;5.35;93.34
6694;BME280;3384;42.628;23.380;2024-03-23T05:41:11;94223.28;;;5.46;91.76
6694;BME280;3384;42.628;23.380;2024-03-23T05:43:38;94222.66;;;5.79;90.79
6694;BME280;3384;42.628;23.380;2024-03-23T05:46:04;94219.56;;;5.42;91.74
6694;BME280;3384;42.628;23.380;2024-03-23T05:48:31;94233.03;;;5.75;89.09
6694;BME280;3384;42.628;23.380;2024-03-23T05:50:59;94232.50;;;5.78;88.70
6694;BME280;3384;42.628;23.380;2024-03-23T05:53:26;94216.88;;;5.57;90.67
6694;BME280;3384;42.628;23.380;2024-03-23T05:56:00;94228.78;;;5.69;91.30
6694;BME280;3384;42.628;23.380;2024-03-23T05:58:29;94224.28;;;5.70;92.02
6694;BME280;3384;42.628;23.380;2024-03-23T06:00:57;94225.06;;;5.75;92.86
6694;BME280;3384;42.628;23.380;2024-03-23T06:03:25;94218.44;;;5.83;91.79
6694;BME280;3384;42.628;23.380;2024-03-23T06:05:51;94232.50;;;5.89;92.89
6694;BME280;3384;42.628;23.380;2024-03-23T06:08:20;94208.75;;;6.07;90.41
6694;BME280;3384;42.628;23.380;2024-03-23T06:10:46;94232.94;;;6.11;90.03
6694;BME280;3384;42.628;23.380;2024-03-23T06:13:13;94226.75;;;6.20;91.08
6694;BME280;3384;42.628;23.380;2024-03-23T06:15:40;94224.03;;;6.30;89.81
6694;BME280;3384;42.628;23.380;2024-03-23T06:18:07;94225.06;;;6.39;88.38
6694;BME280;3384;42.628;23.380;2024-03-23T06:20:33;94221.25;;;6.55;86.98
6694;BME280;3384;42.628;23.380;2024-03-23T06:23:00;94216.38;;;6.67;85.50
6694;BME280;3384;42.628;23.380;2024-03-23T06:25:28;94218.72;;;6.74;83.26
6694;BME280;3384;42.628;23.380;2024-03-23T06:27:55;94226.19;;;6.72;84.32
6694;BME280;3384;42.628;23.380;2024-03-23T06:30:21;94219.38;;;6.56;84.76
6694;BME280;3384;42.628;23.380;2024-03-23T06:32:48;94217.72;;;6.65;84.52
6694;BME280;3384;42.628;23.380;2024-03-23T06:35:14;94217.44;;;6.66;86.56
6694;BME280;3384;42.628;23.380;2024-03-23T06:37:41;94216.63;;;7.04;83.31
6694;BME280;3384;42.628;23.380;2024-03-23T06:40:08;94213.78;;;6.91;83.75
6694;BME280;3384;42.628;23.380;2024-03-23T06:42:37;94220.31;;;7.08;83.58
6694;BME280;3384;42.628;23.380;2024-03-23T06:45:03;94220.78;;;7.15;83.39
6694;BME280;3384;42.628;23.380;2024-03-23T06:47:31;94219.72;;;7.16;83.35
6694;BME280;3384;42.628;23.380;2024-03-23T06:49:57;94216.97;;;7.26;82.92
6694;BME280;3384;42.628;23.380;2024-03-23T06:52:24;94219.47;;;7.41;83.52
6694;BME280;3384;42.628;23.380;2024-03-23T06:54:50;94213.59;;;7.44;83.21
6694;BME280;3384;42.628;23.380;2024-03-23T06:57:17;94215.41;;;7.72;82.33
6694;BME280;3384;42.628;23.380;2024-03-23T06:59:44;94210.19;;;7.62;83.00
6694;BME280;3384;42.628;23.380;2024-03-23T07:02:12;94218.03;;;7.77;81.65
6694;BME280;3384;42.628;23.380;2024-03-23T07:04:38;94213.44;;;7.83;81.31
6694;BME280;3384;42.628;23.380;2024-03-23T07:07:05;94207.06;;;8.02;81.02
6694;BME280;3384;42.628;23.380;2024-03-23T07:09:32;94211.50;;;8.12;81.79
6694;BME280;3384;42.628;23.380;2024-03-23T07:11:59;94206.69;;;7.90;81.22
6694;BME280;3384;42.628;23.380;2024-03-23T07:14:25;94208.66;;;8.03;80.86
6694;BME280;3384;42.628;23.380;2024-03-23T07:16:53;94206.69;;;8.14;80.87
6694;BME280;3384;42.628;23.380;2024-03-23T07:19:19;94200.53;;;8.37;78.32
6694;BME280;3384;42.628;23.380;2024-03-23T07:21:46;94199.50;;;8.33;78.70
6694;BME280;3384;42.628;23.380;2024-03-23T07:24:13;94200.03;;;8.35;78.90
6694;BME280;3384;42.628;23.380;2024-03-23T07:26:40;94199.81;;;8.50;77.80
6694;BME280;3384;42.628;23.380;2024-03-23T07:29:07;94189.91;;;8.51;77.10
6694;BME280;3384;42.628;23.380;2024-03-23T07:31:34;94195.13;;;8.61;76.92
6694;BME280;3384;42.628;23.380;2024-03-23T07:34:01;94190.06;;;8.59;77.00
6694;BME280;3384;42.628;23.380;2024-03-23T07:36:28;94189.41;;;8.67;75.52
6694;BME280;3384;42.628;23.380;2024-03-23T07:38:54;94184.34;;;8.84;76.33
6694;BME280;3384;42.628;23.380;2024-03-23T07:41:21;94193.91;;;9.04;75.34
6694;BME280;3384;42.628;23.380;2024-03-23T07:43:47;94183.19;;;8.90;75.42
6694;BME280;3384;42.628;23.380;2024-03-23T07:46:15;94174.88;;;8.92;75.52
6694;BME280;3384;42.628;23.380;2024-03-23T07:48:41;94182.63;;;9.07;74.76
6694;BME280;3384;42.628;23.380;2024-03-23T07:51:16;94170.09;;;8.89;75.88
6694;BME280;3384;42.628;23.380;2024-03-23T07:53:43;94178.94;;;9.35;74.13
6694;BME280;3384;42.628;23.380;2024-03-23T07:56:10;94174.47;;;9.30;73.90
6694;BME280;3384;42.628;23.380;2024-03-23T07:58:37;94175.78;;;9.33;74.42
6694;BME280;3384;42.628;23.380;2024-03-23T08:01:05;94182.19;;;9.18;73.94
6694;BME280;3384;42.628;23.380;2024-03-23T08:03:33;94170.31;;;9.24;73.62
6694;BME280;3384;42.628;23.380;2024-03-23T08:06:07;94172.94;;;9.70;73.91
6694;BME280;3384;42.628;23.380;2024-03-23T08:08:34;94179.00;;;9.62;72.50
6694;BME280;3384;42.628;23.380;2024-03-23T08:11:01;94180.75;;;9.39;73.54
6694;BME280;3384;42.628;23.380;2024-03-23T08:13:28;94180.38;;;9.59;72.62
6694;BME280;3384;42.628;23.380;2024-03-23T08:15:57;94184.94;;;9.59;72.45
6694;BME280;3384;42.628;23.380;2024-03-23T08:18:22;94174.34;;;9.54;71.48
6694;BME280;3384;42.628;23.380;2024-03-23T08:20:56;94177.00;;;9.67;71.58
6694;BME280;3384;42.628;23.380;2024-03-23T08:23:22;94170.06;;;9.80;70.96
6694;BME280;3384;42.628;23.380;2024-03-23T08:25:50;94171.06;;;9.84;70.36
6694;BME280;3384;42.628;23.380;2024-03-23T08:28:16;94171.19;;;10.33;68.95
6694;BME280;3384;42.628;23.380;2024-03-23T08:30:44;94162.16;;;10.02;69.37
6694;BME280;3384;42.628;23.380;2024-03-23T08:33:09;94174.53;;;9.98;69.95
6694;BME280;3384;42.628;23.380;2024-03-23T08:35:36;94163.16;;;10.19;70.09
6694;BME280;3384;42.628;23.380;2024-03-23T08:38:03;94169.84;;;10.44;69.49
6694;BME280;3384;42.628;23.380;2024-03-23T08:40:30;94159.22;;;10.52;68.23
6694;BME280;3384;42.628;23.380;2024-03-23T08:42:57;94156.19;;;10.32;68.09
6694;BME280;3384;42.628;23.380;2024-03-23T08:45:24;94155.38;;;10.45;67.53
6694;BME280;3384;42.628;23.380;2024-03-23T08:47:50;94150.59;;;10.77;66.45
6694;BME280;3384;42.628;23.380;2024-03-23T08:50:18;94148.28;;;10.84;67.10
6694;BME280;3384;42.628;23.380;2024-03-23T08:52:44;94143.03;;;10.57;67.01
6694;BME280;3384;42.628;23.380;2024-03-23T08:55:11;94135.75;;;10.93;66.96
6694;BME280;3384;42.628;23.380;2024-03-23T08:57:37;94135.66;;;11.07;66.79
6694;BME280;3384;42.628;23.380;2024-03-23T09:00:06;94129.81;;;11.27;65.48
6694;BME280;3384;42.628;23.380;2024-03-23T09:02:34;94130.00;;;11.08;64.17
6694;BME280;3384;42.628;23.380;2024-03-23T09:05:01;94126.41;;;11.44;62.51
6694;BME280;3384;42.628;23.380;2024-03-23T09:07:30;94125.75;;;11.38;62.36
6694;BME280;3384;42.628;23.380;2024-03-23T09:09:57;94128.19;;;11.26;62.50
6694;BME280;3384;42.628;23.380;2024-03-23T09:12:23;94110.88;;;11.32;62.60
6694;BME280;3384;42.628;23.380;2024-03-23T09:14:50;94108.13;;;11.46;63.57
6694;BME280;3384;42.628;23.380;2024-03-23T09:17:18;94098.84;;;11.21;64.11
6694;BME280;3384;42.628;23.380;2024-03-23T09:19:45;94099.53;;;11.35;65.26
6694;BME280;3384;42.628;23.380;2024-03-23T09:22:11;94099.72;;;11.69;64.06
6694;BME280;3384;42.628;23.380;2024-03-23T09:24:38;94096.06;;;11.65;64.18
6694;BME280;3384;42.628;23.380;2024-03-23T09:27:04;94092.34;;;11.83;66.39
6694;BME280;3384;42.628;23.380;2024-03-23T09:29:31;94082.25;;;11.89;63.66
6694;BME280;3384;42.628;23.380;2024-03-23T09:31:57;94084.16;;;11.97;63.15
6694;BME280;3384;42.628;23.380;2024-03-23T09:34:26;94068.38;;;12.12;63.02
6694;BME280;3384;42.628;23.380;2024-03-23T09:36:52;94077.22;;;12.04;61.88
6694;BME280;3384;42.628;23.380;2024-03-23T09:39:19;94075.72;;;11.81;62.58
6694;BME280;3384;42.628;23.380;2024-03-23T09:41:45;94073.94;;;12.16;60.15
6694;BME280;3384;42.628;23.380;2024-03-23T09:44:12;94070.28;;;12.63;59.73
6694;BME280;3384;42.628;23.380;2024-03-23T09:46:39;94065.72;;;12.80;57.39
6694;BME280;3384;42.628;23.380;2024-03-23T09:49:07;94056.09;;;12.62;57.30
6694;BME280;3384;42.628;23.380;2024-03-23T09:51:37;94056.22;;;12.57;59.39
6694;BME280;3384;42.628;23.380;2024-03-23T09:54:04;94049.72;;;12.75;59.47
6694;BME280;3384;42.628;23.380;2024-03-23T09:56:30;94044.34;;;12.75;59.86
6694;BME280;3384;42.628;23.380;2024-03-23T09:59:01;94040.56;;;12.68;60.39
6694;BME280;3384;42.628;23.380;2024-03-23T10:01:29;94031.66;;;13.10;59.17
6694;BME280;3384;42.628;23.380;2024-03-23T10:03:57;94039.41;;;13.11;59.19
6694;BME280;3384;42.628;23.380;2024-03-23T10:06:23;94041.81;;;13.04;57.10
6694;BME280;3384;42.628;23.380;2024-03-23T10:08:53;94038.47;;;13.07;54.90
6694;BME280;3384;42.628;23.380;2024-03-23T10:11:20;94027.19;;;13.22;53.55
6694;BME280;3384;42.628;23.380;2024-03-23T10:13:48;94020.59;;;13.03;53.16
6694;BME280;3384;42.628;23.380;2024-03-23T10:16:21;94026.69;;;13.20;53.67
6694;BME280;3384;42.628;23.380;2024-03-23T10:18:49;94020.72;;;12.98;55.66
6694;BME280;3384;42.628;23.380;2024-03-23T10:21:16;94018.63;;;13.20;55.42
6694;BME280;3384;42.628;23.380;2024-03-23T10:23:43;94002.38;;;13.08;56.17
6694;BME280;3384;42.628;23.380;2024-03-23T10:26:16;94002.53;;;13.49;54.55
6694;BME280;3384;42.628;23.380;2024-03-23T10:29:01;94003.97;;;13.76;54.01
6694;BME280;3384;42.628;23.380;2024-03-23T10:31:28;94002.34;;;13.83;53.21
6694;BME280;3384;42.628;23.380;2024-03-23T10:33:56;93992.31;;;13.34;54.34
6694;BME280;3384;42.628;23.380;2024-03-23T10:36:22;93995.13;;;13.67;53.75
6694;BME280;3384;42.628;23.380;2024-03-23T10:38:50;93994.53;;;13.61;53.44
6694;BME280;3384;42.628;23.380;2024-03-23T10:41:18;93987.66;;;13.43;53.48
6694;BME280;3384;42.628;23.380;2024-03-23T10:43:47;93983.72;;;13.12;53.24
6694;BME280;3384;42.628;23.380;2024-03-23T10:46:13;93980.38;;;13.73;51.86
6694;BME280;3384;42.628;23.380;2024-03-23T10:48:40;93977.47;;;13.57;51.66
6694;BME280;3384;42.628;23.380;2024-03-23T10:51:07;93972.16;;;13.40;51.46
6694;BME280;3384;42.628;23.380;2024-03-23T10:53:35;93960.16;;;13.88;50.65
6694;BME280;3384;42.628;23.380;2024-03-23T10:56:03;93942.75;;;14.06;51.44
6694;BME280;3384;42.628;23.380;2024-03-23T10:58:35;93940.97;;;14.10;49.39
6694;BME280;3384;42.628;23.380;2024-03-23T11:01:03;93929.56;;;14.33;49.72
6694;BME280;3384;42.628;23.380;2024-03-23T11:03:31;93929.22;;;14.35;51.27
6694;BME280;3384;42.628;23.380;2024-03-23T11:05:59;93922.78;;;14.27;51.42
6694;BME280;3384;42.628;23.380;2024-03-23T11:08:33;93910.06;;;14.48;49.15
6694;BME280;3384;42.628;23.380;2024-03-23T11:11:22;93907.72;;;14.59;48.89
6694;BME280;3384;42.628;23.380;2024-03-23T11:13:53;93904.00;;;14.51;48.10
6694;BME280;3384;42.628;23.380;2024-03-23T11:16:23;93903.88;;;14.48;47.69
6694;BME280;3384;42.628;23.380;2024-03-23T11:18:51;93898.78;;;14.67;45.65
6694;BME280;3384;42.628;23.380;2024-03-23T11:21:53;93896.66;;;14.40;45.41
6694;BME280;3384;42.628;23.380;2024-03-23T11:24:21;93899.13;;;14.77;45.39
6694;BME280;3384;42.628;23.380;2024-03-23T11:26:48;93890.03;;;14.37;46.16
6694;BME280;3384;42.628;23.380;2024-03-23T11:29:16;93879.13;;;14.34;45.77
6694;BME280;3384;42.628;23.380;2024-03-23T11:31:47;93880.50;;;14.52;46.04
6694;BME280;3384;42.628;23.380;2024-03-23T11:34:15;93870.63;;;14.44;46.97
6694;BME280;3384;42.628;23.380;2024-03-23T11:36:41;93865.56;;;14.42;45.72
6694;BME280;3384;42.628;23.380;2024-03-23T11:39:12;93865.97;;;14.89;45.31
6694;BME280;3384;42.628;23.380;2024-03-23T11:41:46;93865.28;;;15.04;46.44
6694;BME280;3384;42.628;23.380;2024-03-23T11:44:18;93857.88;;;14.77;44.87
6694;BME280;3384;42.628;23.380;2024-03-23T11:46:44;93853.38;;;14.81;44.80
6694;BME280;3384;42.628;23.380;2024-03-23T11:49:21;93853.63;;;14.88;45.25
6694;BME280;3384;42.628;23.380;2024-03-23T11:51:47;93833.38;;;15.06;45.34
6694;BME280;3384;42.628;23.380;2024-03-23T11:54:15;93837.06;;;15.25;45.95
6694;BME280;3384;42.628;23.380;2024-03-23T11:56:41;93828.19;;;14.89;46.46
6694;BME280;3384;42.628;23.380;2024-03-23T11:59:32;93823.81;;;14.84;44.90
6694;BME280;3384;42.628;23.380;2024-03-23T12:01:58;93820.88;;;15.13;44.35
6694;BME280;3384;42.628;23.380;2024-03-23T12:04:26;93817.72;;;15.11;44.99
6694;BME280;3384;42.628;23.380;2024-03-23T12:07:10;93814.09;;;15.55;43.77
6694;BME280;3384;42.628;23.380;2024-03-23T12:09:38;93805.31;;;15.46;43.55
6694;BME280;3384;42.628;23.380;2024-03-23T12:12:08;93797.72;;;15.00;44.92
6694;BME280;3384;42.628;23.380;2024-03-23T12:14:37;93792.16;;;15.45;44.89
6694;BME280;3384;42.628;23.380;2024-03-23T12:17:10;93793.72;;;15.58;46.25
6694;BME280;3384;42.628;23.380;2024-03-23T12:19:38;93786.53;;;15.50;44.55
6694;BME280;3384;42.628;23.380;2024-03-23T12:22:04;93785.28;;;15.47;43.80
6694;BME280;3384;42.628;23.380;2024-03-23T12:24:32;93792.56;;;15.71;43.80
6694;BME280;3384;42.628;23.380;2024-03-23T12:27:01;93781.84;;;15.74;44.83
6694;BME280;3384;42.628;23.380;2024-03-23T12:29:29;93779.72;;;15.95;44.02
6694;BME280;3384;42.628;23.380;2024-03-23T12:31:59;93776.53;;;16.05;43.59
6694;BME280;3384;42.628;23.380;2024-03-23T12:34:26;93774.28;;;16.07;42.44
6694;BME280;3384;42.628;23.380;2024-03-23T12:36:52;93763.81;;;15.78;43.14
6694;BME280;3384;42.628;23.380;2024-03-23T12:39:19;93764.41;;;16.15;43.09
6694;BME280;3384;42.628;23.380;2024-03-23T12:41:46;93755.00;;;15.81;43.06
6694;BME280;3384;42.628;23.380;2024-03-23T12:44:13;93754.72;;;16.14;41.62
6694;BME280;3384;42.628;23.380;2024-03-23T12:46:41;93755.44;;;16.26;41.44
6694;BME280;3384;42.628;23.380;2024-03-23T12:49:09;93748.47;;;16.41;40.78
6694;BME280;3384;42.628;23.380;2024-03-23T12:51:35;93746.38;;;16.03;40.34
6694;BME280;3384;42.628;23.380;2024-03-23T12:54:03;93746.41;;;16.34;40.34
6694;BME280;3384;42.628;23.380;2024-03-23T12:56:29;93733.84;;;16.42;40.66
6694;BME280;3384;42.628;23.380;2024-03-23T12:58:56;93731.78;;;16.51;40.28
6694;BME280;3384;42.628;23.380;2024-03-23T13:01:23;93720.22;;;16.23;39.51
6694;BME280;3384;42.628;23.380;2024-03-23T13:03:50;93714.66;;;16.47;39.08
6694;BME280;3384;42.628;23.380;2024-03-23T13:06:18;93708.00;;;16.60;39.99
6694;BME280;3384;42.628;23.380;2024-03-23T13:08:45;93709.56;;;16.77;41.37
6694;BME280;3384;42.628;23.380;2024-03-23T13:11:11;93706.06;;;16.76;39.58
6694;BME280;3384;42.628;23.380;2024-03-23T13:13:38;93710.91;;;16.67;39.74
6694;BME280;3384;42.628;23.380;2024-03-23T13:16:05;93700.09;;;16.67;38.22
6694;BME280;3384;42.628;23.380;2024-03-23T13:18:32;93689.78;;;16.73;37.52
6694;BME280;3384;42.628;23.380;2024-03-23T13:20:58;93693.19;;;16.23;38.39
6694;BME280;3384;42.628;23.380;2024-03-23T13:23:26;93693.78;;;16.63;38.63
6694;BME280;3384;42.628;23.380;2024-03-23T13:25:55;93680.47;;;16.89;38.13
6694;BME280;3384;42.628;23.380;2024-03-23T13:28:22;93685.75;;;17.01;38.32
6694;BME280;3384;42.628;23.380;2024-03-23T13:30:52;93685.66;;;16.32;37.64
6694;BME280;3384;42.628;23.380;2024-03-23T13:33:19;93679.72;;;16.73;37.32
6694;BME280;3384;42.628;23.380;2024-03-23T13:35:51;93676.88;;;16.51;35.23
6694;BME280;3384;42.628;23.380;2024-03-23T13:38:18;93681.38;;;16.78;34.51
6694;BME280;3384;42.628;23.380;2024-03-23T13:40:53;93681.28;;;16.90;34.45
6694;BME280;3384;42.628;23.380;2024-03-23T13:43:21;93669.44;;;16.98;32.69
6694;BME280;3384;42.628;23.380;2024-03-23T13:45:49;93665.19;;;16.97;32.70
6694;BME280;3384;42.628;23.380;2024-03-23T13:48:19;93669.50;;;16.82;32.94
6694;BME280;3384;42.628;23.380;2024-03-23T13:50:45;93658.66;;;16.82;32.10
6694;BME280;3384;42.628;23.380;2024-03-23T13:53:13;93661.56;;;16.74;32.96
6694;BME280;3384;42.628;23.380;2024-03-23T13:55:46;93656.28;;;16.96;31.88
6694;BME280;3384;42.628;23.380;2024-03-23T13:58:15;93650.16;;;16.99;32.09
6694;BME280;3384;42.628;23.380;2024-03-23T14:00:42;93649.34;;;16.99;31.63
6694;BME280;3384;42.628;23.380;2024-03-23T14:03:09;93648.84;;;16.74;32.30
6694;BME280;3384;42.628;23.380;2024-03-23T14:05:35;93645.59;;;17.03;32.53
6694;BME280;3384;42.628;23.380;2024-03-23T14:08:04;93648.50;;;17.14;31.65
6694;BME280;3384;42.628;23.380;2024-03-23T14:10:30;93636.06;;;17.09;32.15